sensor_id;sensor_type;location;lat;lon;timestamp;temperature;humidity
8338;DHT22;4206;48.634;9.516;2023-11-21T00:00:16;7.10;99.90
8338;DHT22;4206;48.634;9.516;2023-11-21T00:02:44;7.00;99.90
8338;DHT22;4206;48.634;9.516;2023-11-21T00:05:14;7.10;99.90
8338;DHT22;4206;48.634;9.516;2023-11-21T00:07:41;7.10;99.90
8338;DHT22;4206;48.634;9.516;2023-11-21T00:10:10;7.10;99.90
8338;DHT22;4206;48.634;9.516;2023-11-21T00:12:37;7.10;99.90
8338;DHT22;4206;48.634;9.516;2023-11-21T00:15:05;7.10;99.90
8338;DHT22;4206;48.634;9.516;2023-11-21T00:17:37;7.10;99.90
8338;DHT22;4206;48.634;9.516;2023-11-21T00:20:06;7.10;99.90
8338;DHT22;4206;48.634;9.516;2023-11-21T00:22:34;7.10;99.90
8338;DHT22;4206;48.634;9.516;2023-11-21T00:25:02;7.10;99.90
8338;DHT22;4206;48.634;9.516;2023-11-21T00:27:30;7.00;99.90
8338;DHT22;4206;48.634;9.516;2023-11-21T00:29:58;7.10;99.90
8338;DHT22;4206;48.634;9.516;2023-11-21T00:32:24;7.10;99.90
8338;DHT22;4206;48.634;9.516;2023-11-21T00:34:51;7.00;99.90
8338;DHT22;4206;48.634;9.516;2023-11-21T00:37:18;7.00;99.90
8338;DHT22;4206;48.634;9.516;2023-11-21T00:39:46;7.10;99.90
8338;DHT22;4206;48.634;9.516;2023-11-21T00:42:12;7.30;99.90
8338;DHT22;4206;48.634;9.516;2023-11-21T00:44:39;7.20;99.90
8338;DHT22;4206;48.634;9.516;2023-11-21T00:47:06;7.10;99.90
8338;DHT22;4206;48.634;9.516;2023-11-21T00:49:35;7.20;99.90
8338;DHT22;4206;48.634;9.516;2023-11-21T00:52:01;6.90;99.90
8338;DHT22;4206;48.634;9.516;2023-11-21T00:54:31;7.10;99.90
8338;DHT22;4206;48.634;9.516;2023-11-21T00:57:00;7.00;99.90
8338;DHT22;4206;48.634;9.516;2023-11-21T00:59:27;7.10;99.90
8338;DHT22;4206;48.634;9.516;2023-11-21T01:01:57;7.00;99.90
8338;DHT22;4206;48.634;9.516;2023-11-21T01:04:27;7.10;99.90
8338;DHT22;4206;48.634;9.516;2023-11-21T01:06:54;7.10;99.90
8338;DHT22;4206;48.634;9.516;2023-11-21T01:09:21;7.00;99.90
8338;DHT22;4206;48.634;9.516;2023-11-21T01:11:48;7.10;99.90
8338;DHT22;4206;48.634;9.516;2023-11-21T01:14:15;7.10;99.90
8338;DHT22;4206;48.634;9.516;2023-11-21T01:16:44;7.10;99.90
8338;DHT22;4206;48.634;9.516;2023-11-21T01:19:11;7.10;99.90
8338;DHT22;4206;48.634;9.516;2023-11-21T01:21:38;7.10;99.90
8338;DHT22;4206;48.634;9.516;2023-11-21T01:24:05;7.10;99.90
8338;DHT22;4206;48.634;9.516;2023-11-21T01:26:34;7.20;99.90
8338;DHT22;4206;48.634;9.516;2023-11-21T01:29:01;7.20;99.90
8338;DHT22;4206;48.634;9.516;2023-11-21T01:31:30;7.20;99.90
8338;DHT22;4206;48.634;9.516;2023-11-21T01:33:58;7.20;99.90
8338;DHT22;4206;48.634;9.516;2023-11-21T01:36:33;7.10;99.90
8338;DHT22;4206;48.634;9.516;2023-11-21T01:39:00;7.20;99.90
8338;DHT22;4206;48.634;9.516;2023-11-21T01:41:28;7.10;99.90
8338;DHT22;4206;48.634;9.516;2023-11-21T01:43:55;7.30;99.90
8338;DHT22;4206;48.634;9.516;2023-11-21T01:46:23;7.20;99.90
8338;DHT22;4206;48.634;9.516;2023-11-21T01:48:51;7.20;99.90
8338;DHT22;4206;48.634;9.516;2023-11-21T01:51:19;7.10;99.90
8338;DHT22;4206;48.634;9.516;2023-11-21T01:53:47;7.10;99.90
8338;DHT22;4206;48.634;9.516;2023-11-21T01:56:14;7.10;99.90
8338;DHT22;4206;48.634;9.516;2023-11-21T01:58:42;7.10;99.90
8338;DHT22;4206;48.634;9.516;2023-11-21T02:01:13;7.10;99.90
8338;DHT22;4206;48.634;9.516;2023-11-21T02:03:41;7.10;99.90
8338;DHT22;4206;48.634;9.516;2023-11-21T02:06:08;7.10;99.90
8338;DHT22;4206;48.634;9.516;2023-11-21T02:08:35;7.20;99.90
8338;DHT22;4206;48.634;9.516;2023-11-21T02:11:04;7.10;99.90
8338;DHT22;4206;48.634;9.516;2023-11-21T02:13:32;7.10;99.90
8338;DHT22;4206;48.634;9.516;2023-11-21T02:15:59;7.10;99.90
8338;DHT22;4206;48.634;9.516;2023-11-21T02:18:26;7.10;99.90
8338;DHT22;4206;48.634;9.516;2023-11-21T02:20:56;7.00;99.90
8338;DHT22;4206;48.634;9.516;2023-11-21T02:23:23;7.10;99.90
8338;DHT22;4206;48.634;9.516;2023-11-21T02:25:55;7.10;99.90
8338;DHT22;4206;48.634;9.516;2023-11-21T02:28:22;7.10;99.90
8338;DHT22;4206;48.634;9.516;2023-11-21T02:30:53;7.10;99.90
8338;DHT22;4206;48.634;9.516;2023-11-21T02:33:22;7.10;99.90
8338;DHT22;4206;48.634;9.516;2023-11-21T02:35:49;7.00;99.90
8338;DHT22;4206;48.634;9.516;2023-11-21T02:38:18;7.10;99.90
8338;DHT22;4206;48.634;9.516;2023-11-21T02:40:44;7.20;99.90
8338;DHT22;4206;48.634;9.516;2023-11-21T02:43:11;7.20;99.90
8338;DHT22;4206;48.634;9.516;2023-11-21T02:45:38;7.20;99.90
8338;DHT22;4206;48.634;9.516;2023-11-21T02:48:05;7.20;99.90
8338;DHT22;4206;48.634;9.516;2023-11-21T02:50:32;7.20;99.90
8338;DHT22;4206;48.634;9.516;2023-11-21T02:53:00;7.20;99.90
8338;DHT22;4206;48.634;9.516;2023-11-21T02:55:27;7.20;99.90
8338;DHT22;4206;48.634;9.516;2023-11-21T02:57:54;7.20;99.90
8338;DHT22;4206;48.634;9.516;2023-11-21T03:00:23;7.10;99.90
8338;DHT22;4206;48.634;9.516;2023-11-21T03:02:56;7.20;99.90
8338;DHT22;4206;48.634;9.516;2023-11-21T03:05:24;7.20;99.90
8338;DHT22;4206;48.634;9.516;2023-11-21T03:07:50;7.20;99.90
8338;DHT22;4206;48.634;9.516;2023-11-21T03:10:17;7.20;99.90
8338;DHT22;4206;48.634;9.516;2023-11-21T03:12:46;7.20;99.90
8338;DHT22;4206;48.634;9.516;2023-11-21T03:15:13;7.20;99.90
8338;DHT22;4206;48.634;9.516;2023-11-21T03:17:40;7.20;99.90
8338;DHT22;4206;48.634;9.516;2023-11-21T03:20:07;7.10;99.90
8338;DHT22;4206;48.634;9.516;2023-11-21T03:22:38;7.20;99.90
8338;DHT22;4206;48.634;9.516;2023-11-21T03:25:06;7.20;99.90
8338;DHT22;4206;48.634;9.516;2023-11-21T03:27:33;7.10;99.90
8338;DHT22;4206;48.634;9.516;2023-11-21T03:30:00;7.10;99.90
8338;DHT22;4206;48.634;9.516;2023-11-21T03:32:27;7.10;99.90
8338;DHT22;4206;48.634;9.516;2023-11-21T03:34:56;7.10;99.90
8338;DHT22;4206;48.634;9.516;2023-11-21T03:37:24;7.10;99.90
8338;DHT22;4206;48.634;9.516;2023-11-21T03:39:51;7.20;99.90
8338;DHT22;4206;48.634;9.516;2023-11-21T03:42:19;7.00;99.90
8338;DHT22;4206;48.634;9.516;2023-11-21T03:44:45;7.10;99.90
8338;DHT22;4206;48.634;9.516;2023-11-21T03:47:12;7.10;99.90
8338;DHT22;4206;48.634;9.516;2023-11-21T03:49:40;7.10;99.90
8338;DHT22;4206;48.634;9.516;2023-11-21T03:52:07;7.10;99.90
8338;DHT22;4206;48.634;9.516;2023-11-21T03:54:34;7.10;99.90
8338;DHT22;4206;48.634;9.516;2023-11-21T03:57:01;7.20;99.90
8338;DHT22;4206;48.634;9.516;2023-11-21T03:59:28;7.10;99.90
8338;DHT22;4206;48.634;9.516;2023-11-21T04:01:56;7.10;99.90
8338;DHT22;4206;48.634;9.516;2023-11-21T04:04:23;7.10;99.90
8338;DHT22;4206;48.634;9.516;2023-11-21T04:06:50;7.10;99.90
8338;DHT22;4206;48.634;9.516;2023-11-21T04:09:18;7.20;99.90
8338;DHT22;4206;48.634;9.516;2023-11-21T04:11:45;7.10;99.90
8338;DHT22;4206;48.634;9.516;2023-11-21T04:14:13;7.10;99.90
8338;DHT22;4206;48.634;9.516;2023-11-21T04:16:41;7.10;99.90
8338;DHT22;4206;48.634;9.516;2023-11-21T04:19:09;7.10;99.90
8338;DHT22;4206;48.634;9.516;2023-11-21T04:21:37;7.10;99.90
8338;DHT22;4206;48.634;9.516;2023-11-21T04:24:05;7.00;99.90
8338;DHT22;4206;48.634;9.516;2023-11-21T04:26:33;7.20;99.90
8338;DHT22;4206;48.634;9.516;2023-11-21T04:28:59;7.10;99.90
8338;DHT22;4206;48.634;9.516;2023-11-21T04:31:26;7.10;99.90
8338;DHT22;4206;48.634;9.516;2023-11-21T04:33:53;7.10;99.90
8338;DHT22;4206;48.634;9.516;2023-11-21T04:36:20;7.10;99.90
8338;DHT22;4206;48.634;9.516;2023-11-21T04:38:47;7.20;99.90
8338;DHT22;4206;48.634;9.516;2023-11-21T04:41:14;7.10;99.90
8338;DHT22;4206;48.634;9.516;2023-11-21T04:43:41;7.10;99.90
8338;DHT22;4206;48.634;9.516;2023-11-21T04:46:09;7.10;99.90
8338;DHT22;4206;48.634;9.516;2023-11-21T04:48:36;7.10;99.90
8338;DHT22;4206;48.634;9.516;2023-11-21T04:51:03;7.10;99.90
8338;DHT22;4206;48.634;9.516;2023-11-21T04:53:31;7.10;99.90
8338;DHT22;4206;48.634;9.516;2023-11-21T04:55:58;7.10;99.90
8338;DHT22;4206;48.634;9.516;2023-11-21T04:58:25;7.10;99.90
8338;DHT22;4206;48.634;9.516;2023-11-21T05:00:52;7.10;99.90
8338;DHT22;4206;48.634;9.516;2023-11-21T05:03:19;7.10;99.90
8338;DHT22;4206;48.634;9.516;2023-11-21T05:05:46;6.90;99.90
8338;DHT22;4206;48.634;9.516;2023-11-21T05:08:13;7.10;99.90
8338;DHT22;4206;48.634;9.516;2023-11-21T05:10:40;7.10;99.90
8338;DHT22;4206;48.634;9.516;2023-11-21T05:13:07;7.10;99.90
8338;DHT22;4206;48.634;9.516;2023-11-21T05:15:37;7.10;99.90
8338;DHT22;4206;48.634;9.516;2023-11-21T05:18:05;7.10;99.90
8338;DHT22;4206;48.634;9.516;2023-11-21T05:20:33;7.10;99.90
8338;DHT22;4206;48.634;9.516;2023-11-21T05:23:00;7.10;99.90
8338;DHT22;4206;48.634;9.516;2023-11-21T05:25:27;7.10;99.90
8338;DHT22;4206;48.634;9.516;2023-11-21T05:27:54;7.10;99.90
8338;DHT22;4206;48.634;9.516;2023-11-21T05:30:21;7.10;99.90
8338;DHT22;4206;48.634;9.516;2023-11-21T05:32:49;7.10;99.90
8338;DHT22;4206;48.634;9.516;2023-11-21T05:35:16;6.90;99.90
8338;DHT22;4206;48.634;9.516;2023-11-21T05:37:45;7.00;99.90
8338;DHT22;4206;48.634;9.516;2023-11-21T05:40:13;7.20;99.90
8338;DHT22;4206;48.634;9.516;2023-11-21T05:42:40;7.10;99.90
8338;DHT22;4206;48.634;9.516;2023-11-21T05:45:08;7.10;99.90
8338;DHT22;4206;48.634;9.516;2023-11-21T05:47:38;7.00;99.90
8338;DHT22;4206;48.634;9.516;2023-11-21T05:50:09;7.10;99.90
8338;DHT22;4206;48.634;9.516;2023-11-21T05:52:39;7.10;99.90
8338;DHT22;4206;48.634;9.516;2023-11-21T05:55:07;7.10;99.90
8338;DHT22;4206;48.634;9.516;2023-11-21T05:57:35;7.10;99.90
8338;DHT22;4206;48.634;9.516;2023-11-21T06:00:05;7.00;99.90
8338;DHT22;4206;48.634;9.516;2023-11-21T06:02:45;6.90;99.90
8338;DHT22;4206;48.634;9.516;2023-11-21T06:05:12;7.00;99.90
8338;DHT22;4206;48.634;9.516;2023-11-21T06:07:42;7.00;99.90
8338;DHT22;4206;48.634;9.516;2023-11-21T06:10:11;7.00;99.90
8338;DHT22;4206;48.634;9.516;2023-11-21T06:12:39;7.10;99.90
8338;DHT22;4206;48.634;9.516;2023-11-21T06:15:10;7.00;99.90
8338;DHT22;4206;48.634;9.516;2023-11-21T06:17:41;7.00;99.90
8338;DHT22;4206;48.634;9.516;2023-11-21T06:20:09;7.00;99.90
8338;DHT22;4206;48.634;9.516;2023-11-21T06:22:38;7.10;99.90
8338;DHT22;4206;48.634;9.516;2023-11-21T06:25:06;7.10;99.90
8338;DHT22;4206;48.634;9.516;2023-11-21T06:27:38;7.10;99.90
8338;DHT22;4206;48.634;9.516;2023-11-21T06:30:06;7.10;99.90
8338;DHT22;4206;48.634;9.516;2023-11-21T06:32:34;7.10;99.90
8338;DHT22;4206;48.634;9.516;2023-11-21T06:35:03;7.10;99.90
8338;DHT22;4206;48.634;9.516;2023-11-21T06:37:31;7.10;99.90
8338;DHT22;4206;48.634;9.516;2023-11-21T06:39:59;7.20;99.90
8338;DHT22;4206;48.634;9.516;2023-11-21T06:42:27;7.10;99.90
8338;DHT22;4206;48.634;9.516;2023-11-21T06:44:54;7.10;99.90
8338;DHT22;4206;48.634;9.516;2023-11-21T06:47:24;7.10;99.90
8338;DHT22;4206;48.634;9.516;2023-11-21T06:49:52;7.10;99.90
8338;DHT22;4206;48.634;9.516;2023-11-21T06:52:19;7.10;99.90
8338;DHT22;4206;48.634;9.516;2023-11-21T06:54:47;7.00;99.90
8338;DHT22;4206;48.634;9.516;2023-11-21T06:57:16;7.00;99.90
8338;DHT22;4206;48.634;9.516;2023-11-21T06:59:44;7.10;99.90
8338;DHT22;4206;48.634;9.516;2023-11-21T07:02:11;7.10;99.90
8338;DHT22;4206;48.634;9.516;2023-11-21T07:04:38;7.10;99.90
8338;DHT22;4206;48.634;9.516;2023-11-21T07:07:06;7.10;99.90
8338;DHT22;4206;48.634;9.516;2023-11-21T07:09:34;7.20;99.90
8338;DHT22;4206;48.634;9.516;2023-11-21T07:12:01;7.20;99.90
8338;DHT22;4206;48.634;9.516;2023-11-21T07:14:30;7.20;99.90
8338;DHT22;4206;48.634;9.516;2023-11-21T07:16:58;7.20;99.90
8338;DHT22;4206;48.634;9.516;2023-11-21T07:19:25;7.20;99.90
8338;DHT22;4206;48.634;9.516;2023-11-21T07:21:52;7.30;99.90
8338;DHT22;4206;48.634;9.516;2023-11-21T07:24:19;7.30;99.90
8338;DHT22;4206;48.634;9.516;2023-11-21T07:26:49;7.30;99.90
8338;DHT22;4206;48.634;9.516;2023-11-21T07:29:16;7.30;99.90
8338;DHT22;4206;48.634;9.516;2023-11-21T07:31:43;7.40;99.90
8338;DHT22;4206;48.634;9.516;2023-11-21T07:34:10;7.50;99.90
8338;DHT22;4206;48.634;9.516;2023-11-21T07:36:38;7.50;99.90
8338;DHT22;4206;48.634;9.516;2023-11-21T07:39:05;7.60;99.90
8338;DHT22;4206;48.634;9.516;2023-11-21T07:41:33;7.60;99.90
8338;DHT22;4206;48.634;9.516;2023-11-21T07:44:00;7.70;99.90
8338;DHT22;4206;48.634;9.516;2023-11-21T07:46:27;7.60;99.90
8338;DHT22;4206;48.634;9.516;2023-11-21T07:48:54;7.60;99.90
8338;DHT22;4206;48.634;9.516;2023-11-21T07:51:22;7.70;99.90
8338;DHT22;4206;48.634;9.516;2023-11-21T07:53:49;7.70;99.90
8338;DHT22;4206;48.634;9.516;2023-11-21T07:56:16;7.70;99.90
8338;DHT22;4206;48.634;9.516;2023-11-21T07:58:44;7.80;99.90
8338;DHT22;4206;48.634;9.516;2023-11-21T08:01:12;7.70;99.90
8338;DHT22;4206;48.634;9.516;2023-11-21T08:03:39;7.90;99.90
8338;DHT22;4206;48.634;9.516;2023-11-21T08:06:07;7.90;99.90
8338;DHT22;4206;48.634;9.516;2023-11-21T08:08:34;8.10;99.90
8338;DHT22;4206;48.634;9.516;2023-11-21T08:11:00;8.20;99.90
8338;DHT22;4206;48.634;9.516;2023-11-21T08:13:29;8.30;99.90
8338;DHT22;4206;48.634;9.516;2023-11-21T08:15:59;8.40;99.90
8338;DHT22;4206;48.634;9.516;2023-11-21T08:18:29;8.40;99.90
8338;DHT22;4206;48.634;9.516;2023-11-21T08:20:57;8.40;99.90
8338;DHT22;4206;48.634;9.516;2023-11-21T08:23:24;8.50;99.90
8338;DHT22;4206;48.634;9.516;2023-11-21T08:25:53;8.60;99.90
8338;DHT22;4206;48.634;9.516;2023-11-21T08:28:21;8.50;99.90
8338;DHT22;4206;48.634;9.516;2023-11-21T08:30:52;8.50;99.90
8338;DHT22;4206;48.634;9.516;2023-11-21T08:33:21;8.60;99.90
8338;DHT22;4206;48.634;9.516;2023-11-21T08:35:48;8.50;99.90
8338;DHT22;4206;48.634;9.516;2023-11-21T08:38:16;8.50;99.90
8338;DHT22;4206;48.634;9.516;2023-11-21T08:40:43;8.40;99.90
8338;DHT22;4206;48.634;9.516;2023-11-21T08:43:10;8.40;99.90
8338;DHT22;4206;48.634;9.516;2023-11-21T08:45:38;8.40;99.90
8338;DHT22;4206;48.634;9.516;2023-11-21T08:48:05;8.30;99.90
8338;DHT22;4206;48.634;9.516;2023-11-21T08:50:32;8.30;99.90
8338;DHT22;4206;48.634;9.516;2023-11-21T08:52:59;8.30;99.90
8338;DHT22;4206;48.634;9.516;2023-11-21T08:55:27;8.30;99.90
8338;DHT22;4206;48.634;9.516;2023-11-21T08:57:55;8.10;99.90
8338;DHT22;4206;48.634;9.516;2023-11-21T09:00:24;8.20;99.90
8338;DHT22;4206;48.634;9.516;2023-11-21T09:02:51;8.10;99.90
8338;DHT22;4206;48.634;9.516;2023-11-21T09:05:19;8.10;99.90
8338;DHT22;4206;48.634;9.516;2023-11-21T09:07:48;8.20;99.90
8338;DHT22;4206;48.634;9.516;2023-11-21T09:10:15;8.10;99.90
8338;DHT22;4206;48.634;9.516;2023-11-21T09:12:46;8.20;99.90
8338;DHT22;4206;48.634;9.516;2023-11-21T09:15:13;8.30;99.90
8338;DHT22;4206;48.634;9.516;2023-11-21T09:17:41;8.30;99.90
8338;DHT22;4206;48.634;9.516;2023-11-21T09:20:10;8.40;99.90
8338;DHT22;4206;48.634;9.516;2023-11-21T09:22:38;8.20;99.90
8338;DHT22;4206;48.634;9.516;2023-11-21T09:25:05;8.30;99.90
8338;DHT22;4206;48.634;9.516;2023-11-21T09:27:32;8.40;99.90
8338;DHT22;4206;48.634;9.516;2023-11-21T09:30:00;8.60;99.90
8338;DHT22;4206;48.634;9.516;2023-11-21T09:32:27;8.40;99.90
8338;DHT22;4206;48.634;9.516;2023-11-21T09:34:56;8.70;99.90
8338;DHT22;4206;48.634;9.516;2023-11-21T09:37:25;8.80;99.90
8338;DHT22;4206;48.634;9.516;2023-11-21T09:39:54;9.00;99.90
8338;DHT22;4206;48.634;9.516;2023-11-21T09:42:23;8.90;99.90
8338;DHT22;4206;48.634;9.516;2023-11-21T09:45:03;9.20;99.90
8338;DHT22;4206;48.634;9.516;2023-11-21T09:47:38;9.00;99.90
8338;DHT22;4206;48.634;9.516;2023-11-21T09:50:17;8.90;99.90
8338;DHT22;4206;48.634;9.516;2023-11-21T09:55:47;8.80;99.90
8338;DHT22;4206;48.634;9.516;2023-11-21T09:58:15;8.80;99.90
8338;DHT22;4206;48.634;9.516;2023-11-21T10:00:43;8.70;99.90
8338;DHT22;4206;48.634;9.516;2023-11-21T10:03:11;8.70;99.90
8338;DHT22;4206;48.634;9.516;2023-11-21T10:05:40;8.70;99.90
8338;DHT22;4206;48.634;9.516;2023-11-21T10:08:08;8.40;99.90
8338;DHT22;4206;48.634;9.516;2023-11-21T10:10:37;8.50;99.90
8338;DHT22;4206;48.634;9.516;2023-11-21T10:13:06;8.50;99.90
8338;DHT22;4206;48.634;9.516;2023-11-21T10:15:35;8.60;99.90
8338;DHT22;4206;48.634;9.516;2023-11-21T10:18:03;8.50;99.90
8338;DHT22;4206;48.634;9.516;2023-11-21T10:20:30;8.50;99.90
8338;DHT22;4206;48.634;9.516;2023-11-21T10:22:58;8.20;99.90
8338;DHT22;4206;48.634;9.516;2023-11-21T10:25:26;8.40;99.90
8338;DHT22;4206;48.634;9.516;2023-11-21T10:27:58;8.60;99.90
8338;DHT22;4206;48.634;9.516;2023-11-21T10:30:32;8.90;99.90
8338;DHT22;4206;48.634;9.516;2023-11-21T10:33:00;9.10;99.90
8338;DHT22;4206;48.634;9.516;2023-11-21T10:35:45;9.30;99.90
8338;DHT22;4206;48.634;9.516;2023-11-21T10:38:14;9.30;99.90
8338;DHT22;4206;48.634;9.516;2023-11-21T10:40:41;9.40;99.90
8338;DHT22;4206;48.634;9.516;2023-11-21T10:43:09;9.40;99.90
8338;DHT22;4206;48.634;9.516;2023-11-21T10:45:37;9.50;99.90
8338;DHT22;4206;48.634;9.516;2023-11-21T10:48:06;9.80;99.90
8338;DHT22;4206;48.634;9.516;2023-11-21T10:50:35;10.00;99.90
8338;DHT22;4206;48.634;9.516;2023-11-21T10:53:03;10.40;99.90
8338;DHT22;4206;48.634;9.516;2023-11-21T10:55:32;10.70;99.90
8338;DHT22;4206;48.634;9.516;2023-11-21T10:58:01;11.10;99.90
8338;DHT22;4206;48.634;9.516;2023-11-21T11:00:29;11.40;99.90
8338;DHT22;4206;48.634;9.516;2023-11-21T11:02:56;11.60;99.90
8338;DHT22;4206;48.634;9.516;2023-11-21T11:05:27;11.90;99.90
8338;DHT22;4206;48.634;9.516;2023-11-21T11:07:59;12.40;99.90
8338;DHT22;4206;48.634;9.516;2023-11-21T11:10:28;12.00;99.90
8338;DHT22;4206;48.634;9.516;2023-11-21T11:12:57;12.00;99.90
8338;DHT22;4206;48.634;9.516;2023-11-21T11:15:26;11.80;99.90
8338;DHT22;4206;48.634;9.516;2023-11-21T11:17:54;11.50;99.90
8338;DHT22;4206;48.634;9.516;2023-11-21T11:20:29;11.40;99.90
8338;DHT22;4206;48.634;9.516;2023-11-21T11:26:12;10.70;99.90
8338;DHT22;4206;48.634;9.516;2023-11-21T11:31:25;10.40;99.90
8338;DHT22;4206;48.634;9.516;2023-11-21T11:36:51;10.20;99.90
8338;DHT22;4206;48.634;9.516;2023-11-21T11:39:39;10.30;99.90
8338;DHT22;4206;48.634;9.516;2023-11-21T11:42:13;10.50;99.90
8338;DHT22;4206;48.634;9.516;2023-11-21T11:47:21;11.20;99.90
8338;DHT22;4206;48.634;9.516;2023-11-21T11:50:08;11.90;99.90
8338;DHT22;4206;48.634;9.516;2023-11-21T11:52:52;13.00;99.90
8338;DHT22;4206;48.634;9.516;2023-11-21T11:55:23;13.70;99.90
8338;DHT22;4206;48.634;9.516;2023-11-21T11:57:53;13.70;99.90
8338;DHT22;4206;48.634;9.516;2023-11-21T12:00:34;13.10;99.90
8338;DHT22;4206;48.634;9.516;2023-11-21T12:03:06;12.50;99.90
8338;DHT22;4206;48.634;9.516;2023-11-21T12:05:35;12.20;99.90
8338;DHT22;4206;48.634;9.516;2023-11-21T12:08:07;12.10;99.90
8338;DHT22;4206;48.634;9.516;2023-11-21T12:10:36;12.10;99.90
8338;DHT22;4206;48.634;9.516;2023-11-21T12:13:07;12.10;99.90
8338;DHT22;4206;48.634;9.516;2023-11-21T12:15:35;12.20;99.90
8338;DHT22;4206;48.634;9.516;2023-11-21T12:18:04;12.20;99.90
8338;DHT22;4206;48.634;9.516;2023-11-21T12:20:33;12.00;99.90
8338;DHT22;4206;48.634;9.516;2023-11-21T12:23:07;11.50;99.90
8338;DHT22;4206;48.634;9.516;2023-11-21T12:25:36;11.40;99.90
8338;DHT22;4206;48.634;9.516;2023-11-21T12:28:04;11.20;99.90
8338;DHT22;4206;48.634;9.516;2023-11-21T12:30:34;11.10;99.90
8338;DHT22;4206;48.634;9.516;2023-11-21T12:33:03;11.00;99.90
8338;DHT22;4206;48.634;9.516;2023-11-21T12:35:32;10.90;99.90
8338;DHT22;4206;48.634;9.516;2023-11-21T12:38:02;10.70;99.90
8338;DHT22;4206;48.634;9.516;2023-11-21T12:40:30;10.40;99.90
8338;DHT22;4206;48.634;9.516;2023-11-21T12:42:58;10.30;99.90
8338;DHT22;4206;48.634;9.516;2023-11-21T12:45:27;10.10;99.90
8338;DHT22;4206;48.634;9.516;2023-11-21T12:48:04;10.10;99.90
8338;DHT22;4206;48.634;9.516;2023-11-21T12:50:36;9.80;99.90
8338;DHT22;4206;48.634;9.516;2023-11-21T12:53:06;9.90;99.90
8338;DHT22;4206;48.634;9.516;2023-11-21T12:55:36;9.80;99.90
8338;DHT22;4206;48.634;9.516;2023-11-21T12:58:07;10.00;99.90
8338;DHT22;4206;48.634;9.516;2023-11-21T13:00:42;10.10;99.90
8338;DHT22;4206;48.634;9.516;2023-11-21T13:03:11;10.00;99.90
8338;DHT22;4206;48.634;9.516;2023-11-21T13:05:41;10.00;99.90
8338;DHT22;4206;48.634;9.516;2023-11-21T13:08:14;10.00;99.90
8338;DHT22;4206;48.634;9.516;2023-11-21T13:10:50;9.90;99.90
8338;DHT22;4206;48.634;9.516;2023-11-21T13:13:17;9.90;99.90
8338;DHT22;4206;48.634;9.516;2023-11-21T13:15:58;10.00;99.90
8338;DHT22;4206;48.634;9.516;2023-11-21T13:18:31;10.10;99.90
8338;DHT22;4206;48.634;9.516;2023-11-21T13:21:01;10.20;99.90
8338;DHT22;4206;48.634;9.516;2023-11-21T13:23:34;10.20;99.90
8338;DHT22;4206;48.634;9.516;2023-11-21T13:26:04;10.20;99.90
8338;DHT22;4206;48.634;9.516;2023-11-21T13:28:33;10.20;99.90
8338;DHT22;4206;48.634;9.516;2023-11-21T13:31:02;10.00;99.90
8338;DHT22;4206;48.634;9.516;2023-11-21T13:33:39;9.90;99.90
8338;DHT22;4206;48.634;9.516;2023-11-21T13:36:10;9.70;99.90
8338;DHT22;4206;48.634;9.516;2023-11-21T13:38:38;9.70;99.90
8338;DHT22;4206;48.634;9.516;2023-11-21T13:41:11;9.80;99.90
8338;DHT22;4206;48.634;9.516;2023-11-21T13:43:41;9.80;99.90
8338;DHT22;4206;48.634;9.516;2023-11-21T13:46:11;9.90;99.90
8338;DHT22;4206;48.634;9.516;2023-11-21T13:48:44;10.20;99.90
8338;DHT22;4206;48.634;9.516;2023-11-21T13:51:18;10.20;99.90
8338;DHT22;4206;48.634;9.516;2023-11-21T13:53:48;10.20;99.90
8338;DHT22;4206;48.634;9.516;2023-11-21T13:56:18;10.20;99.90
8338;DHT22;4206;48.634;9.516;2023-11-21T13:58:51;10.40;99.90
8338;DHT22;4206;48.634;9.516;2023-11-21T14:01:20;10.40;99.90
8338;DHT22;4206;48.634;9.516;2023-11-21T14:04:04;10.20;99.90
8338;DHT22;4206;48.634;9.516;2023-11-21T14:06:47;9.90;99.90
8338;DHT22;4206;48.634;9.516;2023-11-21T14:09:24;10.00;99.90
8338;DHT22;4206;48.634;9.516;2023-11-21T14:11:54;10.00;99.90
8338;DHT22;4206;48.634;9.516;2023-11-21T14:14:25;10.10;99.90
8338;DHT22;4206;48.634;9.516;2023-11-21T14:16:53;10.00;99.90
8338;DHT22;4206;48.634;9.516;2023-11-21T14:19:20;10.00;99.90
8338;DHT22;4206;48.634;9.516;2023-11-21T14:21:48;10.00;99.90
8338;DHT22;4206;48.634;9.516;2023-11-21T14:24:16;9.80;99.90
8338;DHT22;4206;48.634;9.516;2023-11-21T14:26:46;9.70;99.90
8338;DHT22;4206;48.634;9.516;2023-11-21T14:29:24;9.70;99.90
8338;DHT22;4206;48.634;9.516;2023-11-21T14:31:55;9.60;99.90
8338;DHT22;4206;48.634;9.516;2023-11-21T14:34:25;9.50;99.90
8338;DHT22;4206;48.634;9.516;2023-11-21T14:36:53;9.60;99.90
8338;DHT22;4206;48.634;9.516;2023-11-21T14:39:22;9.50;99.90
8338;DHT22;4206;48.634;9.516;2023-11-21T14:41:53;9.60;99.90
8338;DHT22;4206;48.634;9.516;2023-11-21T14:44:24;9.40;99.90
8338;DHT22;4206;48.634;9.516;2023-11-21T14:46:54;9.20;99.90
8338;DHT22;4206;48.634;9.516;2023-11-21T14:49:25;9.20;99.90
8338;DHT22;4206;48.634;9.516;2023-11-21T14:51:55;9.30;99.90
8338;DHT22;4206;48.634;9.516;2023-11-21T14:54:32;9.20;99.90
8338;DHT22;4206;48.634;9.516;2023-11-21T14:57:09;9.10;99.90
8338;DHT22;4206;48.634;9.516;2023-11-21T14:59:48;9.00;99.90
8338;DHT22;4206;48.634;9.516;2023-11-21T15:02:19;8.80;99.90
8338;DHT22;4206;48.634;9.516;2023-11-21T15:05:06;8.70;99.90
8338;DHT22;4206;48.634;9.516;2023-11-21T15:07:35;8.80;99.90
8338;DHT22;4206;48.634;9.516;2023-11-21T15:10:03;8.70;99.90
8338;DHT22;4206;48.634;9.516;2023-11-21T15:12:30;8.60;99.90
8338;DHT22;4206;48.634;9.516;2023-11-21T15:15:00;8.50;99.90
8338;DHT22;4206;48.634;9.516;2023-11-21T15:17:28;8.50;99.90
8338;DHT22;4206;48.634;9.516;2023-11-21T15:19:58;8.50;99.90
8338;DHT22;4206;48.634;9.516;2023-11-21T15:22:27;8.40;99.90
8338;DHT22;4206;48.634;9.516;2023-11-21T15:24:55;8.40;99.90
8338;DHT22;4206;48.634;9.516;2023-11-21T15:27:22;8.30;99.90
8338;DHT22;4206;48.634;9.516;2023-11-21T15:29:51;8.30;99.90
8338;DHT22;4206;48.634;9.516;2023-11-21T15:32:18;8.30;99.90
8338;DHT22;4206;48.634;9.516;2023-11-21T15:34:45;8.30;99.90
8338;DHT22;4206;48.634;9.516;2023-11-21T15:37:13;8.30;99.90
8338;DHT22;4206;48.634;9.516;2023-11-21T15:39:41;8.20;99.90
8338;DHT22;4206;48.634;9.516;2023-11-21T15:42:08;8.20;99.90
8338;DHT22;4206;48.634;9.516;2023-11-21T15:44:36;8.20;99.90
8338;DHT22;4206;48.634;9.516;2023-11-21T15:47:04;8.20;99.90
8338;DHT22;4206;48.634;9.516;2023-11-21T15:49:35;8.10;99.90
8338;DHT22;4206;48.634;9.516;2023-11-21T15:52:05;8.10;99.90
8338;DHT22;4206;48.634;9.516;2023-11-21T15:54:34;8.10;99.90
8338;DHT22;4206;48.634;9.516;2023-11-21T15:57:03;8.20;99.90
8338;DHT22;4206;48.634;9.516;2023-11-21T15:59:31;8.10;99.90
8338;DHT22;4206;48.634;9.516;2023-11-21T16:02:00;8.10;99.90
8338;DHT22;4206;48.634;9.516;2023-11-21T16:04:32;8.10;99.90
8338;DHT22;4206;48.634;9.516;2023-11-21T16:06:59;8.10;99.90
8338;DHT22;4206;48.634;9.516;2023-11-21T16:09:27;8.10;99.90
8338;DHT22;4206;48.634;9.516;2023-11-21T16:12:01;8.10;99.90
8338;DHT22;4206;48.634;9.516;2023-11-21T16:14:33;8.10;99.90
8338;DHT22;4206;48.634;9.516;2023-11-21T16:17:17;8.10;99.90
8338;DHT22;4206;48.634;9.516;2023-11-21T16:19:45;8.10;99.90
8338;DHT22;4206;48.634;9.516;2023-11-21T16:22:14;8.00;99.90
8338;DHT22;4206;48.634;9.516;2023-11-21T16:24:41;8.00;99.90
8338;DHT22;4206;48.634;9.516;2023-11-21T16:27:11;8.00;99.90
8338;DHT22;4206;48.634;9.516;2023-11-21T16:29:41;8.00;99.90
8338;DHT22;4206;48.634;9.516;2023-11-21T16:32:08;8.00;99.90
8338;DHT22;4206;48.634;9.516;2023-11-21T16:34:37;8.00;99.90
8338;DHT22;4206;48.634;9.516;2023-11-21T16:37:07;8.00;99.90
8338;DHT22;4206;48.634;9.516;2023-11-21T16:39:38;8.10;99.90